createdAt,value
2018-11-25T00:00:36.617Z,100.03
2018-11-25T00:03:11.283Z,111.70
2018-11-25T00:05:45.802Z,101.83
2018-11-25T00:08:20.281Z,112.40
2018-11-25T00:10:54.845Z,95.07
2018-11-25T00:13:29.414Z,113.87
2018-11-25T00:16:03.931Z,124.53
2018-11-25T00:18:38.626Z,114.37
2018-11-25T00:21:13.213Z,107.23
2018-11-25T00:23:47.751Z,113.97
2018-11-25T00:26:22.395Z,112.07
2018-11-25T00:28:56.950Z,127.20
2018-11-25T00:31:31.691Z,96.37
2018-11-25T00:34:06.070Z,98.23
2018-11-25T00:36:40.743Z,120.00
2018-11-25T00:39:15.372Z,96.27
2018-11-25T00:41:50.531Z,96.40
2018-11-25T00:44:25.472Z,100.33
2018-11-25T00:46:59.990Z,104.93
2018-11-25T00:49:35.716Z,105.53
2018-11-25T00:52:10.499Z,118.37
2018-11-25T00:54:45.608Z,111.20
2018-11-25T00:57:20.535Z,97.20
2018-11-25T00:59:56.469Z,89.10
2018-11-25T01:02:31.881Z,97.23
2018-11-25T01:05:06.839Z,93.30
2018-11-25T01:07:41.741Z,95.03
2018-11-25T01:10:17.342Z,110.37
2018-11-25T01:12:52.256Z,102.40
2018-11-25T01:15:27.931Z,101.17
2018-11-25T01:18:03.041Z,103.27
2018-11-25T01:20:37.495Z,92.10
2018-11-25T01:23:12.300Z,99.40
2018-11-25T01:25:47.125Z,114.20
2018-11-25T01:28:21.708Z,103.47
2018-11-25T01:30:57.025Z,104.43
2018-11-25T01:33:32.654Z,95.63
2018-11-25T01:36:07.683Z,113.50
2018-11-25T01:38:42.356Z,101.07
2018-11-25T01:41:17.262Z,110.57
2018-11-25T01:43:51.938Z,102.93
2018-11-25T01:46:26.499Z,120.03
2018-11-25T01:49:00.997Z,105.20
2018-11-25T01:51:35.623Z,110.03
2018-11-25T01:54:10.133Z,119.13
2018-11-25T01:56:45.139Z,101.70
2018-11-25T01:59:19.712Z,98.73
2018-11-25T02:01:54.365Z,96.10
2018-11-25T02:04:28.979Z,102.03
2018-11-25T02:07:03.916Z,97.83
2018-11-25T02:09:38.824Z,101.90
2018-11-25T02:12:14.260Z,98.23
2018-11-25T02:14:48.905Z,90.17
2018-11-25T02:17:23.674Z,86.50
2018-11-25T02:19:58.342Z,86.53
2018-11-25T02:22:32.834Z,95.53
2018-11-25T02:25:07.527Z,88.93
2018-11-25T02:27:42.024Z,90.37
2018-11-25T02:30:17.559Z,102.73
2018-11-25T02:32:51.959Z,81.77
2018-11-25T02:35:26.562Z,98.73
2018-11-25T02:38:01.142Z,87.73
2018-11-25T02:40:36.151Z,82.43
2018-11-25T02:43:10.762Z,98.73
2018-11-25T02:45:45.523Z,89.77
2018-11-25T02:48:20.271Z,86.03
2018-11-25T02:50:55.123Z,89.33
2018-11-25T02:53:29.692Z,91.63
2018-11-25T02:56:04.677Z,77.20
2018-11-25T02:58:39.329Z,97.73
2018-11-25T03:01:14.931Z,85.20
2018-11-25T03:03:49.566Z,86.50
2018-11-25T03:06:24.151Z,77.73
2018-11-25T03:08:58.864Z,87.27
2018-11-25T03:11:33.366Z,86.03
2018-11-25T03:14:07.967Z,94.67
2018-11-25T03:16:42.546Z,82.67
2018-11-25T03:19:17.161Z,78.77
2018-11-25T03:21:52.104Z,85.23
2018-11-25T03:24:26.959Z,78.30
2018-11-25T03:27:01.649Z,85.53
2018-11-25T03:29:36.443Z,87.43
2018-11-25T03:32:11.986Z,69.77
2018-11-25T03:34:46.547Z,65.23
2018-11-25T03:37:21.172Z,70.20
2018-11-25T03:39:55.879Z,65.13
2018-11-25T03:42:30.752Z,76.40
2018-11-25T03:45:08.123Z,70.67
2018-11-25T03:47:42.506Z,67.40
2018-11-25T03:50:17.788Z,56.43
2018-11-25T03:52:52.451Z,70.00
2018-11-25T03:55:27.156Z,67.50
2018-11-25T03:58:02.689Z,63.73
2018-11-25T04:00:37.402Z,66.87
2018-11-25T04:03:12.131Z,57.10
2018-11-25T04:05:46.923Z,71.97
2018-11-25T04:08:21.515Z,63.17
2018-11-25T04:10:56.275Z,76.60
2018-11-25T04:13:30.918Z,76.83
2018-11-25T04:16:05.596Z,66.53
2018-11-25T04:18:40.162Z,68.47
2018-11-25T04:21:15.925Z,62.20
2018-11-25T04:23:50.433Z,63.80
2018-11-25T04:26:24.975Z,60.20
2018-11-25T04:28:59.640Z,59.93
2018-11-25T04:31:34.467Z,63.67
2018-11-25T04:34:09.119Z,62.93
2018-11-25T04:36:43.582Z,61.47
2018-11-25T04:39:18.358Z,70.43
2018-11-25T04:41:53.179Z,66.43
2018-11-25T04:44:27.925Z,57.57
2018-11-25T04:47:02.816Z,76.10
2018-11-25T04:49:37.926Z,63.03
2018-11-25T04:52:12.733Z,63.17
2018-11-25T04:54:47.646Z,59.00
2018-11-25T04:57:22.375Z,67.30
2018-11-25T04:59:57.035Z,63.80
2018-11-25T05:02:32.537Z,59.87
2018-11-25T05:05:10.429Z,50.60
2018-11-25T05:07:45.162Z,55.83
2018-11-25T05:10:19.750Z,55.53
2018-11-25T05:12:54.280Z,58.10
2018-11-25T05:15:28.975Z,57.77
2018-11-25T05:18:03.439Z,56.13
2018-11-25T05:20:38.404Z,59.80
2018-11-25T05:23:13.393Z,49.10
2018-11-25T05:25:48.123Z,51.50
2018-11-25T05:28:22.758Z,47.47
2018-11-25T05:30:57.355Z,51.30
2018-11-25T05:33:32.312Z,56.80
2018-11-25T05:36:06.878Z,48.03
2018-11-25T05:38:41.398Z,49.67
2018-11-25T05:41:16.135Z,48.30
2018-11-25T05:43:50.917Z,53.10
2018-11-25T05:46:25.812Z,51.07
2018-11-25T05:49:00.584Z,47.67
2018-11-25T05:51:35.304Z,49.37
2018-11-25T05:54:09.891Z,61.93
2018-11-25T05:56:44.291Z,57.67
2018-11-25T05:59:18.983Z,58.33
2018-11-25T06:01:53.924Z,66.53
2018-11-25T06:04:28.610Z,47.77
2018-11-25T06:07:03.272Z,45.73
2018-11-25T06:09:38.176Z,51.57
2018-11-25T06:12:13.035Z,52.27
2018-11-25T06:14:47.954Z,49.87
2018-11-25T06:17:22.903Z,47.77
2018-11-25T06:19:57.555Z,52.63
2018-11-25T06:22:32.263Z,53.97
2018-11-25T06:25:08.883Z,56.93
2018-11-25T06:27:43.657Z,48.90
2018-11-25T06:30:19.347Z,54.93
2018-11-25T06:32:53.959Z,41.83
2018-11-25T06:35:28.602Z,43.37
2018-11-25T06:38:03.622Z,52.60
2018-11-25T06:40:38.114Z,53.73
2018-11-25T06:43:12.707Z,46.10
2018-11-25T06:45:47.329Z,49.77
2018-11-25T06:48:21.826Z,52.07
2018-11-25T06:50:56.700Z,48.13
2018-11-25T06:53:31.479Z,52.87
2018-11-25T06:56:06.331Z,47.23
2018-11-25T06:58:41.266Z,54.33
2018-11-25T07:01:15.806Z,45.77
2018-11-25T07:03:50.274Z,62.20
2018-11-25T07:06:24.858Z,46.43
2018-11-25T07:09:00.807Z,52.67
2018-11-25T07:11:35.426Z,42.80
2018-11-25T07:14:09.997Z,51.33
2018-11-25T07:16:44.611Z,51.17
2018-11-25T07:19:20.121Z,41.97
2018-11-25T07:21:54.706Z,47.40
2018-11-25T07:24:29.727Z,45.33
2018-11-25T07:27:04.686Z,44.87
2018-11-25T07:29:39.487Z,45.20
2018-11-25T07:32:14.312Z,46.17
2018-11-25T07:34:50.672Z,50.30
2018-11-25T07:37:25.295Z,51.90
2018-11-25T07:39:59.987Z,48.27
2018-11-25T07:42:35.613Z,53.93
2018-11-25T07:45:12.612Z,48.40
2018-11-25T07:47:47.707Z,39.53
2018-11-25T07:50:22.247Z,45.30
2018-11-25T07:52:57.619Z,44.37
2018-11-25T07:55:32.198Z,50.23
2018-11-25T07:58:06.912Z,44.67
2018-11-25T08:00:41.979Z,41.17
2018-11-25T08:03:17.079Z,41.33
2018-11-25T08:05:51.783Z,43.73
2018-11-25T08:08:26.377Z,45.07
2018-11-25T08:11:01.142Z,47.10
2018-11-25T08:13:35.864Z,45.43
2018-11-25T08:16:10.651Z,41.03
2018-11-25T08:18:45.235Z,45.37
2018-11-25T08:21:20.128Z,43.37
2018-11-25T08:23:55.601Z,42.90
2018-11-25T08:26:30.450Z,54.37
2018-11-25T08:29:05.091Z,41.43
2018-11-25T08:31:40.671Z,47.43
2018-11-25T08:34:16.104Z,53.07
2018-11-25T08:36:51.022Z,44.33
2018-11-25T08:39:25.796Z,45.37
2018-11-25T08:42:01.401Z,48.87
2018-11-25T08:44:38.037Z,53.97
2018-11-25T08:47:12.469Z,42.87
2018-11-25T08:49:47.116Z,42.30
2018-11-25T08:52:22.635Z,48.43
2018-11-25T08:54:57.740Z,48.70
2018-11-25T08:57:32.371Z,50.37
2018-11-25T09:00:17.267Z,44.40
2018-11-25T09:02:53.202Z,46.47
2018-11-25T09:05:27.700Z,44.40
2018-11-25T09:08:02.411Z,41.40
2018-11-25T09:10:37.666Z,47.10
2018-11-25T09:13:12.957Z,49.43
2018-11-25T09:15:47.437Z,46.37
2018-11-25T09:18:22.094Z,45.73
2018-11-25T09:20:56.582Z,49.50
2018-11-25T09:23:31.050Z,51.43
2018-11-25T09:26:05.975Z,54.13
2018-11-25T09:28:43.057Z,56.90
2018-11-25T09:31:17.799Z,48.80
2018-11-25T09:33:52.449Z,56.00
2018-11-25T09:36:27.448Z,49.80
2018-11-25T09:39:02.087Z,51.67
2018-11-25T09:41:36.962Z,50.47
2018-11-25T09:44:18.293Z,51.67
2018-11-25T09:46:53.828Z,46.60
2018-11-25T09:49:28.432Z,45.93
2018-11-25T09:52:03.505Z,48.50
2018-11-25T09:54:37.963Z,59.40
2018-11-25T09:57:12.578Z,48.53
2018-11-25T09:59:47.344Z,46.73
2018-11-25T10:02:24.251Z,48.50
2018-11-25T10:04:59.258Z,51.23
2018-11-25T10:07:34.299Z,45.10
2018-11-25T10:10:13.319Z,52.37
2018-11-25T10:12:48.139Z,48.43
2018-11-25T10:15:24.056Z,55.60
2018-11-25T10:18:00.062Z,53.43
2018-11-25T10:20:33.989Z,44.77
2018-11-25T10:23:08.755Z,55.27
2018-11-25T10:25:43.437Z,60.30
2018-11-25T10:28:18.124Z,57.87
2018-11-25T10:30:52.591Z,61.60
2018-11-25T10:33:27.801Z,60.10
2018-11-25T10:36:04.591Z,57.90
2018-11-25T10:38:38.207Z,55.20
2018-11-25T10:41:12.745Z,58.70
2018-11-25T10:43:48.164Z,60.70
2018-11-25T10:46:23.664Z,59.33
2018-11-25T10:48:58.443Z,62.47
2018-11-25T10:51:33.210Z,57.97
2018-11-25T10:54:08.634Z,52.83
2018-11-25T10:56:43.533Z,57.20
2018-11-25T10:59:18.395Z,65.60
2018-11-25T11:01:58.743Z,71.03
2018-11-25T11:04:38.877Z,64.67
2018-11-25T11:07:18.937Z,59.67
2018-11-25T11:09:55.420Z,69.43
2018-11-25T11:12:30.823Z,75.67
2018-11-25T11:17:52.406Z,76.00
2018-11-25T11:20:27.791Z,84.60
2018-11-25T11:23:03.743Z,79.63
2018-11-25T11:25:39.523Z,89.60
2018-11-25T11:28:15.760Z,80.20
2018-11-25T11:30:50.558Z,84.83
2018-11-25T11:33:25.920Z,81.90
2018-11-25T11:36:00.818Z,80.10
2018-11-25T11:38:37.623Z,79.43
2018-11-25T11:41:12.483Z,85.47
2018-11-25T11:43:47.963Z,87.37
2018-11-25T11:46:22.938Z,82.37
2018-11-25T11:48:57.962Z,85.30
2018-11-25T11:51:32.831Z,91.57
2018-11-25T11:54:13.375Z,86.97
2018-11-25T11:56:48.352Z,90.97
2018-11-25T11:59:23.480Z,86.90
2018-11-25T12:01:59.664Z,94.63
2018-11-25T12:04:35.390Z,93.67
2018-11-25T12:07:11.281Z,87.67
2018-11-25T12:09:47.176Z,93.60
2018-11-25T12:12:22.036Z,90.00
2018-11-25T12:15:03.520Z,94.37
2018-11-25T12:17:39.430Z,94.30
2018-11-25T12:20:21.225Z,98.53
2018-11-25T12:22:53.660Z,92.37
2018-11-25T12:25:28.703Z,104.03
2018-11-25T12:28:04.727Z,93.90
2018-11-25T12:30:41.909Z,87.30
2018-11-25T12:33:17.409Z,92.30
2018-11-25T12:35:52.852Z,87.27
2018-11-25T12:38:29.065Z,97.77
2018-11-25T12:41:03.887Z,104.00
2018-11-25T12:43:39.574Z,89.30
2018-11-25T12:46:14.455Z,97.80
2018-11-25T12:48:50.665Z,92.67
2018-11-25T12:51:28.472Z,105.00
2018-11-25T12:54:04.072Z,101.40
2018-11-25T12:56:51.631Z,93.93
2018-11-25T12:59:21.260Z,101.90
2018-11-25T13:01:56.110Z,110.17
2018-11-25T13:04:31.042Z,106.83
2018-11-25T13:07:06.371Z,96.57
2018-11-25T13:09:41.246Z,106.03
2018-11-25T13:12:16.393Z,113.00
2018-11-25T13:14:52.100Z,106.30
2018-11-25T13:17:26.908Z,102.17
2018-11-25T13:20:03.763Z,107.90
2018-11-25T13:22:40.458Z,104.87
2018-11-25T13:25:16.257Z,96.93
2018-11-25T13:27:51.731Z,90.37
2018-11-25T13:30:29.230Z,112.17
2018-11-25T13:33:04.311Z,110.00
2018-11-25T13:35:39.600Z,113.97
2018-11-25T13:38:14.932Z,100.83
2018-11-25T13:40:50.411Z,102.00
2018-11-25T13:43:26.691Z,110.70
2018-11-25T13:46:01.634Z,120.00
2018-11-25T13:48:36.620Z,102.37
2018-11-25T13:51:11.622Z,121.13
2018-11-25T13:53:46.687Z,100.70
2018-11-25T13:56:21.917Z,110.60
2018-11-25T13:58:57.386Z,122.87
2018-11-25T14:01:32.419Z,105.80
2018-11-25T14:04:07.477Z,105.50
2018-11-25T14:06:43.000Z,129.77
2018-11-25T14:09:18.239Z,115.50
2018-11-25T14:11:53.362Z,113.67
2018-11-25T14:14:28.006Z,116.53
2018-11-25T14:17:02.720Z,121.07
2018-11-25T14:19:37.515Z,136.80
2018-11-25T14:22:12.230Z,113.57
2018-11-25T14:24:47.699Z,120.57
2018-11-25T14:27:22.232Z,135.07
2018-11-25T14:29:58.661Z,118.13
2018-11-25T14:32:33.450Z,127.27
2018-11-25T14:35:12.074Z,124.27
2018-11-25T14:37:47.787Z,110.50
2018-11-25T14:40:29.077Z,112.23
2018-11-25T14:43:06.501Z,114.30
2018-11-25T14:45:41.243Z,123.63
2018-11-25T14:48:16.236Z,121.50
2018-11-25T14:50:51.007Z,126.43
2018-11-25T14:53:25.723Z,148.93
2018-11-25T14:56:00.409Z,124.07
2018-11-25T14:58:35.045Z,112.00
2018-11-25T15:03:53.161Z,137.73
2018-11-25T15:06:29.338Z,110.80
2018-11-25T15:09:02.638Z,114.37
2018-11-25T15:11:38.667Z,121.40
2018-11-25T15:14:13.227Z,119.03
2018-11-25T15:16:50.321Z,129.57
2018-11-25T15:19:25.249Z,123.50
2018-11-25T15:22:00.144Z,131.10
2018-11-25T15:24:34.691Z,122.83
2018-11-25T15:27:09.943Z,120.80
2018-11-25T15:29:44.655Z,106.00
2018-11-25T15:32:20.159Z,95.13
2018-11-25T15:34:54.804Z,113.37
2018-11-25T15:37:29.710Z,104.57
2018-11-25T15:40:04.924Z,118.93
2018-11-25T15:42:39.828Z,116.63
2018-11-25T15:45:14.482Z,126.90
2018-11-25T15:47:52.343Z,129.60
2018-11-25T15:50:31.466Z,130.73
2018-11-25T15:53:11.520Z,129.23
2018-11-25T15:55:47.809Z,134.03
2018-11-25T15:58:22.262Z,136.20
2018-11-25T16:00:56.997Z,145.57
2018-11-25T16:03:31.451Z,132.67
2018-11-25T16:06:15.648Z,139.03
2018-11-25T16:08:50.163Z,149.40
2018-11-25T16:11:24.619Z,138.13
2018-11-25T16:14:00.105Z,154.30
2018-11-25T16:16:34.656Z,154.37
2018-11-25T16:19:09.369Z,159.53
2018-11-25T16:21:43.974Z,163.07
2018-11-25T16:24:18.577Z,135.47
2018-11-25T16:26:53.111Z,158.13
2018-11-25T16:29:28.239Z,128.00
2018-11-25T16:32:03.556Z,152.50
2018-11-25T16:34:38.499Z,153.37
2018-11-25T16:37:13.154Z,131.80
2018-11-25T16:39:48.929Z,139.13
2018-11-25T16:42:23.452Z,142.43
2018-11-25T16:44:58.108Z,162.10
2018-11-25T16:47:32.703Z,153.63
2018-11-25T16:50:09.274Z,148.63
2018-11-25T16:52:44.942Z,138.00
2018-11-25T16:55:19.784Z,138.17
2018-11-25T16:57:54.315Z,167.97
2018-11-25T17:00:28.929Z,160.37
2018-11-25T17:03:03.495Z,151.80
2018-11-25T17:05:41.179Z,133.57
2018-11-25T17:08:29.096Z,158.33
2018-11-25T17:11:03.663Z,173.63
2018-11-25T17:13:38.578Z,171.93
2018-11-25T17:16:13.388Z,158.53
2018-11-25T17:18:48.331Z,165.83
2018-11-25T17:21:22.879Z,171.57
2018-11-25T17:23:57.636Z,177.83
2018-11-25T17:26:32.233Z,142.37
2018-11-25T17:29:06.795Z,141.63
2018-11-25T17:31:41.312Z,138.90
2018-11-25T17:34:15.923Z,161.67
2018-11-25T17:36:50.542Z,142.90
2018-11-25T17:39:25.891Z,138.73
2018-11-25T17:42:01.625Z,120.00
2018-11-25T17:44:36.326Z,136.67
2018-11-25T17:47:11.118Z,117.23
2018-11-25T17:49:45.901Z,123.27
2018-11-25T17:52:20.687Z,132.63
2018-11-25T17:54:55.363Z,134.60
2018-11-25T17:57:29.992Z,119.57
2018-11-25T18:00:09.690Z,159.87
2018-11-25T18:02:44.146Z,129.37
2018-11-25T18:05:18.666Z,149.23
2018-11-25T18:07:53.200Z,134.00
2018-11-25T18:10:27.859Z,114.57
2018-11-25T18:13:02.455Z,119.67
2018-11-25T18:15:37.068Z,153.60
2018-11-25T18:18:15.483Z,142.40
2018-11-25T18:20:55.186Z,141.53
2018-11-25T18:23:29.671Z,134.13
2018-11-25T18:26:04.190Z,131.03
2018-11-25T18:28:38.785Z,142.27
2018-11-25T18:31:15.785Z,145.80
2018-11-25T18:33:50.339Z,159.00
2018-11-25T18:36:25.065Z,132.10
2018-11-25T18:38:59.573Z,150.00
2018-11-25T18:41:34.370Z,151.33
2018-11-25T18:44:09.007Z,159.00
2018-11-25T18:46:46.952Z,161.77
2018-11-25T18:49:18.246Z,124.50
2018-11-25T18:51:54.340Z,129.53
2018-11-25T18:54:28.892Z,144.60
2018-11-25T18:57:04.349Z,163.90
2018-11-25T18:59:40.062Z,149.80
2018-11-25T19:02:21.109Z,121.80
2018-11-25T19:04:58.096Z,145.37
2018-11-25T19:07:32.885Z,122.43
2018-11-25T19:10:13.965Z,136.87
2018-11-25T19:12:48.917Z,135.80
2018-11-25T19:15:23.712Z,152.40
2018-11-25T19:17:58.463Z,123.57
2018-11-25T19:20:33.135Z,110.13
2018-11-25T19:25:48.544Z,129.87
2018-11-25T19:28:25.113Z,144.00
2018-11-25T19:30:59.837Z,100.63
2018-11-25T19:33:34.989Z,127.03
2018-11-25T19:36:10.069Z,139.30
2018-11-25T19:38:45.467Z,132.37
2018-11-25T19:41:20.384Z,126.60
2018-11-25T19:43:55.246Z,155.47
2018-11-25T19:46:29.846Z,148.57
2018-11-25T19:49:04.710Z,140.03
2018-11-25T19:54:23.404Z,139.07
2018-11-25T19:56:57.852Z,163.70
2018-11-25T19:59:32.442Z,106.03
2018-11-25T20:02:07.070Z,127.90
2018-11-25T20:04:41.916Z,148.57
2018-11-25T20:07:17.535Z,137.60
2018-11-25T20:09:52.070Z,131.23
2018-11-25T20:12:32.166Z,147.13
2018-11-25T20:15:07.759Z,145.40
2018-11-25T20:17:43.211Z,137.33
2018-11-25T20:20:21.463Z,163.43
2018-11-25T20:22:57.021Z,162.90
2018-11-25T20:25:31.860Z,139.27
2018-11-25T20:28:06.616Z,143.60
2018-11-25T20:30:41.333Z,138.33
2018-11-25T20:33:21.199Z,157.53
2018-11-25T20:35:56.213Z,143.27
2018-11-25T20:38:36.427Z,136.57
2018-11-25T20:41:11.503Z,170.60
2018-11-25T20:43:46.385Z,169.37
2018-11-25T20:46:26.485Z,170.60
2018-11-25T20:49:01.410Z,152.73
2018-11-25T20:51:41.577Z,137.87
2018-11-25T20:54:20.510Z,154.83
2018-11-25T20:56:56.020Z,149.23
2018-11-25T20:59:30.835Z,148.83
2018-11-25T21:02:06.477Z,149.87
2018-11-25T21:04:41.384Z,133.87
2018-11-25T21:07:16.425Z,153.87
2018-11-25T21:09:51.390Z,180.77
2018-11-25T21:12:26.300Z,150.43
2018-11-25T21:15:01.228Z,167.07
2018-11-25T21:17:35.932Z,170.40
2018-11-25T21:20:12.965Z,165.70
2018-11-25T21:22:47.783Z,164.90
2018-11-25T21:25:23.540Z,173.60
2018-11-25T21:27:58.176Z,164.20
2018-11-25T21:30:32.628Z,151.80
2018-11-25T21:33:07.199Z,175.23
2018-11-25T21:35:41.994Z,170.80
2018-11-25T21:38:16.749Z,188.70
2018-11-25T21:40:51.403Z,189.30
2018-11-25T21:43:26.193Z,192.07
2018-11-25T21:46:00.872Z,177.43
2018-11-25T21:48:35.871Z,165.27
2018-11-25T21:51:10.414Z,172.07
2018-11-25T21:53:44.979Z,120.77
2018-11-25T21:56:19.567Z,148.50
2018-11-25T21:58:54.154Z,157.10
2018-11-25T22:01:28.653Z,147.10
2018-11-25T22:04:03.563Z,177.00
2018-11-25T22:06:38.266Z,171.23
2018-11-25T22:09:13.101Z,186.50
2018-11-25T22:11:47.869Z,178.70
2018-11-25T22:14:22.397Z,154.33
2018-11-25T22:16:56.955Z,179.13
2018-11-25T22:19:31.707Z,157.03
2018-11-25T22:22:06.579Z,173.30
2018-11-25T22:24:41.194Z,172.73
2018-11-25T22:27:16.534Z,169.93
2018-11-25T22:29:51.333Z,152.07
2018-11-25T22:32:26.040Z,189.70
2018-11-25T22:35:00.783Z,197.80
2018-11-25T22:37:35.458Z,177.67
2018-11-25T22:40:11.365Z,147.57
2018-11-25T22:42:47.133Z,164.90
2018-11-25T22:45:23.275Z,155.17
2018-11-25T22:47:57.955Z,171.33
2018-11-25T22:50:34.053Z,172.67
2018-11-25T22:53:08.971Z,170.70
2018-11-25T22:55:43.768Z,149.50
2018-11-25T22:58:18.358Z,164.37
2018-11-25T23:00:53.463Z,178.27
2018-11-25T23:03:27.956Z,122.70
2018-11-25T23:06:15.410Z,138.83
2018-11-25T23:08:49.997Z,155.13
2018-11-25T23:11:24.542Z,169.50
2018-11-25T23:13:59.195Z,146.20
2018-11-25T23:16:33.755Z,180.10
2018-11-25T23:19:08.282Z,172.90
2018-11-25T23:21:43.079Z,169.10
2018-11-25T23:24:18.655Z,162.27
2018-11-25T23:26:53.524Z,173.97
2018-11-25T23:29:28.391Z,158.43
2018-11-25T23:32:03.188Z,183.30
2018-11-25T23:34:37.967Z,165.43
2018-11-25T23:37:13.136Z,172.17
2018-11-25T23:39:47.961Z,158.90
2018-11-25T23:42:22.883Z,163.37
2018-11-25T23:44:59.703Z,143.47
2018-11-25T23:47:34.338Z,179.00
2018-11-25T23:50:10.087Z,144.40
2018-11-25T23:52:46.296Z,149.43
2018-11-25T23:55:21.279Z,133.23
2018-11-25T23:57:56.244Z,158.27
